createdAt,value
2023-03-21T00:00:56.341Z,3.30
2023-03-21T00:03:27.078Z,4.23
2023-03-21T00:05:55.497Z,3.47
2023-03-21T00:08:25.254Z,3.03
2023-03-21T00:10:57.989Z,4.53
2023-03-21T00:13:28.298Z,3.80
2023-03-21T00:16:08.451Z,4.60
2023-03-21T00:18:48.836Z,3.40
2023-03-21T00:24:08.113Z,2.83
2023-03-21T00:26:38.184Z,2.37
2023-03-21T00:29:06.901Z,8.30
2023-03-21T00:31:35.315Z,2.20
2023-03-21T00:34:04.966Z,1.90
2023-03-21T00:36:33.234Z,3.40
2023-03-21T00:39:01.916Z,2.70
2023-03-21T00:41:45.337Z,2.50
2023-03-21T00:44:15.612Z,3.40
2023-03-21T00:46:54.486Z,3.37
2023-03-21T00:49:34.621Z,3.93
2023-03-21T00:52:17.147Z,6.83
2023-03-21T00:54:48.493Z,2.57
2023-03-21T00:57:16.909Z,3.90
2023-03-21T00:59:45.820Z,2.33
2023-03-21T01:02:26.708Z,4.07
2023-03-21T01:04:56.317Z,3.10
2023-03-21T01:07:24.551Z,7.90
2023-03-21T01:09:52.767Z,4.00
2023-03-21T01:12:20.938Z,1.93
2023-03-21T01:14:49.090Z,2.40
2023-03-21T01:17:17.214Z,4.00
2023-03-21T01:19:52.017Z,1.97
2023-03-21T01:22:22.266Z,6.83
2023-03-21T01:24:58.511Z,3.33
2023-03-21T01:27:31.375Z,2.20
2023-03-21T01:29:59.868Z,5.10
2023-03-21T01:32:28.261Z,5.20
2023-03-21T01:34:56.559Z,3.00
2023-03-21T01:37:26.604Z,3.70
2023-03-21T01:39:54.999Z,2.40
2023-03-21T01:42:23.733Z,3.03
2023-03-21T01:44:55.395Z,4.10
2023-03-21T01:47:23.777Z,3.70
2023-03-21T01:50:09.815Z,2.60
2023-03-21T01:52:57.089Z,3.57
2023-03-21T01:55:29.492Z,3.33
2023-03-21T01:58:27.717Z,4.60
2023-03-21T02:01:08.501Z,4.97
2023-03-21T02:03:50.668Z,3.90
2023-03-21T02:06:44.194Z,5.80
2023-03-21T02:09:40.388Z,4.20
2023-03-21T02:12:16.377Z,3.13
2023-03-21T02:14:48.564Z,2.03
2023-03-21T02:17:40.324Z,3.93
2023-03-21T02:20:51.106Z,2.40
2023-03-21T02:23:52.651Z,5.27
2023-03-21T02:26:52.516Z,3.73
2023-03-21T02:30:04.982Z,3.63
2023-03-21T02:32:47.767Z,3.23
2023-03-21T02:35:47.159Z,6.83
2023-03-21T02:38:30.396Z,5.63
2023-03-21T02:41:17.969Z,2.33
2023-03-21T02:43:56.252Z,3.40
2023-03-21T02:46:42.923Z,3.30
2023-03-21T02:49:22.999Z,4.23
2023-03-21T02:51:53.103Z,4.57
2023-03-21T02:54:41.796Z,4.13
2023-03-21T02:57:14.273Z,3.80
2023-03-21T02:59:53.225Z,6.67
2023-03-21T03:02:29.533Z,2.33
2023-03-21T03:04:58.754Z,1.90
2023-03-21T03:07:38.773Z,6.67
2023-03-21T03:10:26.964Z,2.10
2023-03-21T03:13:04.752Z,2.40
2023-03-21T03:15:41.854Z,3.80
2023-03-21T03:18:14.647Z,2.90
2023-03-21T03:20:52.058Z,2.03
2023-03-21T03:23:28.941Z,3.50
2023-03-21T03:26:05.485Z,2.27
2023-03-21T03:28:39.143Z,3.10
2023-03-21T03:31:16.264Z,6.03
2023-03-21T03:33:55.613Z,2.10
2023-03-21T03:36:32.431Z,2.00
2023-03-21T03:39:09.018Z,2.37
2023-03-21T03:44:38.994Z,3.10
2023-03-21T03:47:15.126Z,3.70
2023-03-21T03:49:52.615Z,3.57
2023-03-21T03:52:27.888Z,2.10
2023-03-21T03:55:02.294Z,1.90
2023-03-21T03:57:36.460Z,4.00
2023-03-21T04:00:09.283Z,4.90
2023-03-21T04:02:47.108Z,4.80
2023-03-21T04:05:21.362Z,3.20
2023-03-21T04:07:50.772Z,5.13
2023-03-21T04:10:22.377Z,3.27
2023-03-21T04:12:51.911Z,2.23
2023-03-21T04:15:28.754Z,4.43
2023-03-21T04:18:04.713Z,3.87
2023-03-21T04:20:37.418Z,1.80
2023-03-21T04:23:07.675Z,3.53
2023-03-21T04:25:38.701Z,7.07
2023-03-21T04:28:10.161Z,3.00
2023-03-21T04:31:01.279Z,2.30
2023-03-21T04:33:38.341Z,2.33
2023-03-21T04:36:09.517Z,2.50
2023-03-21T04:38:39.103Z,2.23
2023-03-21T04:41:08.091Z,2.00
2023-03-21T04:43:37.613Z,1.83
2023-03-21T04:46:06.381Z,1.57
2023-03-21T04:48:34.743Z,1.50
2023-03-21T04:51:02.901Z,1.73
2023-03-21T04:53:32.656Z,3.13
2023-03-21T04:56:00.734Z,3.23
2023-03-21T04:58:30.402Z,3.03
2023-03-21T05:01:02.484Z,1.83
2023-03-21T05:03:34.559Z,2.40
2023-03-21T05:06:03.122Z,4.10
2023-03-21T05:08:31.290Z,3.00
2023-03-21T05:10:59.580Z,2.53
2023-03-21T05:13:29.299Z,2.33
2023-03-21T05:15:57.633Z,3.93
2023-03-21T05:18:27.545Z,5.30
2023-03-21T05:21:10.721Z,4.70
2023-03-21T05:23:42.280Z,3.30
2023-03-21T05:26:11.765Z,4.23
2023-03-21T05:28:57.500Z,3.00
2023-03-21T05:31:26.591Z,3.30
2023-03-21T05:34:06.781Z,2.33
2023-03-21T05:36:36.358Z,3.20
2023-03-21T05:39:08.157Z,3.30
2023-03-21T05:41:40.648Z,2.80
2023-03-21T05:44:09.830Z,3.30
2023-03-21T05:46:39.800Z,2.97
2023-03-21T05:49:09.394Z,4.13
2023-03-21T05:51:37.570Z,2.47
2023-03-21T05:54:06.599Z,2.30
2023-03-21T05:56:36.038Z,2.97
2023-03-21T05:59:07.339Z,3.50
2023-03-21T06:01:41.500Z,7.50
2023-03-21T06:04:16.611Z,7.00
2023-03-21T06:06:45.007Z,2.43
2023-03-21T06:09:13.653Z,2.80
2023-03-21T06:11:49.576Z,4.17
2023-03-21T06:14:40.598Z,4.10
2023-03-21T06:17:34.845Z,3.30
2023-03-21T06:20:10.617Z,4.27
2023-03-21T06:22:47.157Z,3.17
2023-03-21T06:25:15.528Z,2.00
2023-03-21T06:27:44.765Z,2.97
2023-03-21T06:30:13.950Z,3.63
2023-03-21T06:33:02.315Z,5.70
2023-03-21T06:35:32.180Z,5.00
2023-03-21T06:38:00.515Z,2.50
2023-03-21T06:40:33.045Z,1.97
2023-03-21T06:43:01.447Z,3.20
2023-03-21T06:45:29.527Z,3.87
2023-03-21T06:47:57.839Z,3.57
2023-03-21T06:50:44.551Z,11.50
2023-03-21T06:53:12.655Z,3.40
2023-03-21T06:56:00.777Z,2.77
2023-03-21T06:58:28.978Z,4.90
2023-03-21T07:01:00.104Z,3.73
2023-03-21T07:03:28.550Z,4.00
2023-03-21T07:05:59.051Z,3.17
2023-03-21T07:08:27.429Z,4.70
2023-03-21T07:10:58.007Z,3.57
2023-03-21T07:13:26.220Z,4.67
2023-03-21T07:15:59.331Z,2.60
2023-03-21T07:18:28.089Z,2.83
2023-03-21T07:20:56.218Z,3.73
2023-03-21T07:23:27.478Z,4.30
2023-03-21T07:25:56.392Z,5.83
2023-03-21T07:28:25.163Z,3.00
2023-03-21T07:30:55.602Z,3.93
2023-03-21T07:33:24.254Z,4.43
2023-03-21T07:35:55.178Z,3.03
2023-03-21T07:38:25.432Z,6.07
2023-03-21T07:40:54.213Z,3.83
2023-03-21T07:43:23.695Z,2.40
2023-03-21T07:45:58.452Z,5.87
2023-03-21T07:48:28.238Z,7.23
2023-03-21T07:50:56.537Z,4.10
2023-03-21T07:53:26.134Z,5.70
2023-03-21T07:55:56.614Z,4.97
2023-03-21T07:58:24.906Z,5.83
2023-03-21T08:00:53.060Z,5.50
2023-03-21T08:03:21.649Z,6.20
2023-03-21T08:05:49.854Z,3.93
2023-03-21T08:08:18.025Z,3.40
2023-03-21T08:10:47.577Z,5.60
2023-03-21T08:13:15.713Z,2.40
2023-03-21T08:15:44.106Z,3.80
2023-03-21T08:18:12.540Z,2.40
2023-03-21T08:20:41.430Z,2.60
2023-03-21T08:23:09.617Z,3.27
2023-03-21T08:25:39.352Z,4.40
2023-03-21T08:28:09.067Z,2.47
2023-03-21T08:30:38.972Z,1.97
2023-03-21T08:33:07.567Z,3.20
2023-03-21T08:35:37.815Z,3.63
2023-03-21T08:38:09.353Z,3.67
2023-03-21T08:40:37.757Z,5.23
2023-03-21T08:43:06.116Z,6.60
2023-03-21T08:45:36.006Z,5.57
2023-03-21T08:48:04.289Z,1.70
2023-03-21T08:50:32.469Z,2.97
2023-03-21T08:53:00.686Z,2.73
2023-03-21T08:55:28.887Z,4.03
2023-03-21T08:57:58.171Z,6.27
2023-03-21T09:00:27.352Z,5.57
2023-03-21T09:02:58.845Z,5.40
2023-03-21T09:05:28.441Z,4.83
2023-03-21T09:07:56.765Z,3.33
2023-03-21T09:10:25.235Z,5.20
2023-03-21T09:12:55.199Z,7.30
2023-03-21T09:15:25.584Z,4.90
2023-03-21T09:17:54.305Z,5.87
2023-03-21T09:20:31.242Z,5.13
2023-03-21T09:23:01.041Z,3.80
2023-03-21T09:25:35.118Z,3.17
2023-03-21T09:28:04.804Z,5.37
2023-03-21T09:30:34.490Z,3.43
2023-03-21T09:33:03.842Z,7.97
2023-03-21T09:35:34.812Z,9.43
2023-03-21T09:38:03.837Z,2.33
2023-03-21T09:40:46.406Z,5.33
2023-03-21T09:43:25.053Z,3.87
2023-03-21T09:45:59.939Z,4.70
2023-03-21T09:48:39.574Z,4.03
2023-03-21T09:51:18.018Z,4.20
2023-03-21T09:53:49.952Z,4.23
2023-03-21T09:56:19.145Z,2.50
2023-03-21T09:58:53.182Z,4.20
2023-03-21T10:01:27.317Z,6.43
2023-03-21T10:03:56.833Z,5.07
2023-03-21T10:06:30.693Z,3.47
2023-03-21T10:09:02.247Z,4.80
2023-03-21T10:11:44.370Z,5.00
2023-03-21T10:14:20.602Z,3.47
2023-03-21T10:16:59.375Z,3.80
2023-03-21T10:19:29.593Z,5.07
2023-03-21T10:22:01.746Z,5.07
2023-03-21T10:24:34.182Z,6.47
2023-03-21T10:27:03.784Z,3.13
2023-03-21T10:29:40.118Z,5.63
2023-03-21T10:32:12.816Z,3.07
2023-03-21T10:34:43.862Z,3.87
2023-03-21T10:37:16.838Z,6.53
2023-03-21T10:39:48.250Z,6.77
2023-03-21T10:42:21.542Z,2.90
2023-03-21T10:44:51.682Z,4.20
2023-03-21T10:47:22.995Z,3.83
2023-03-21T10:50:08.954Z,3.20
2023-03-21T10:52:43.081Z,5.23
2023-03-21T10:55:19.905Z,4.63
2023-03-21T10:57:48.828Z,5.00
2023-03-21T11:00:22.928Z,3.50
2023-03-21T11:02:52.690Z,3.40
2023-03-21T11:05:24.071Z,4.37
2023-03-21T11:08:01.625Z,4.07
2023-03-21T11:10:32.554Z,4.77
2023-03-21T11:13:06.660Z,6.60
2023-03-21T11:15:42.696Z,9.40
2023-03-21T11:18:20.632Z,3.30
2023-03-21T11:20:54.611Z,3.80
2023-03-21T11:23:29.597Z,5.93
2023-03-21T11:25:59.867Z,4.40
2023-03-21T11:28:34.648Z,4.27
2023-03-21T11:31:04.813Z,7.53
2023-03-21T11:33:36.581Z,2.87
2023-03-21T11:36:07.538Z,5.17
2023-03-21T11:38:40.584Z,3.50
2023-03-21T11:41:09.009Z,4.93
2023-03-21T11:43:38.479Z,3.90
2023-03-21T11:46:09.559Z,9.20
2023-03-21T11:48:42.066Z,4.27
2023-03-21T11:51:20.040Z,4.80
2023-03-21T11:53:58.464Z,5.93
2023-03-21T11:56:30.423Z,3.03
2023-03-21T11:59:24.843Z,3.17
2023-03-21T12:02:10.310Z,3.60
2023-03-21T12:04:42.238Z,4.97
2023-03-21T12:07:34.425Z,3.00
2023-03-21T12:10:33.679Z,2.03
2023-03-21T12:13:23.065Z,2.77
2023-03-21T12:15:57.508Z,4.43
2023-03-21T12:18:45.067Z,2.30
2023-03-21T12:21:20.454Z,2.93
2023-03-21T12:24:03.007Z,5.50
2023-03-21T12:26:37.297Z,3.60
2023-03-21T12:29:27.402Z,2.73
2023-03-21T12:32:11.379Z,6.67
2023-03-21T12:35:03.664Z,4.73
2023-03-21T12:37:37.912Z,2.90
2023-03-21T12:40:18.728Z,5.53
2023-03-21T12:43:08.564Z,4.40
2023-03-21T12:45:47.104Z,3.63
2023-03-21T12:48:22.278Z,3.33
2023-03-21T12:50:53.539Z,3.40
2023-03-21T12:53:40.759Z,6.70
2023-03-21T12:56:13.231Z,4.07
2023-03-21T12:58:48.804Z,4.00
2023-03-21T13:01:19.083Z,5.20
2023-03-21T13:03:52.686Z,4.70
2023-03-21T13:06:23.893Z,5.57
2023-03-21T13:08:57.725Z,2.90
2023-03-21T13:11:28.835Z,3.60
2023-03-21T13:14:03.869Z,3.00
2023-03-21T13:16:35.783Z,3.10
2023-03-21T13:19:17.306Z,3.27
2023-03-21T13:21:56.166Z,2.20
2023-03-21T13:24:33.778Z,3.17
2023-03-21T13:27:07.092Z,2.77
2023-03-21T13:29:46.856Z,2.33
2023-03-21T13:32:22.307Z,2.20
2023-03-21T13:34:56.270Z,2.73
2023-03-21T13:37:27.979Z,5.13
2023-03-21T13:40:01.954Z,2.70
2023-03-21T13:42:35.065Z,4.60
2023-03-21T13:45:12.243Z,4.30
2023-03-21T13:47:54.167Z,1.73
2023-03-21T13:50:28.990Z,3.33
2023-03-21T13:53:24.357Z,4.53
2023-03-21T13:56:20.874Z,2.33
2023-03-21T13:58:55.193Z,1.57
2023-03-21T14:01:41.409Z,4.70
2023-03-21T14:04:18.801Z,3.23
2023-03-21T14:06:52.666Z,2.67
2023-03-21T14:09:28.272Z,3.50
2023-03-21T14:12:03.874Z,1.80
2023-03-21T14:14:40.458Z,2.20
2023-03-21T14:17:24.158Z,2.27
2023-03-21T14:19:55.114Z,6.83
2023-03-21T14:22:23.576Z,3.27
2023-03-21T14:24:58.111Z,5.00
2023-03-21T14:27:30.732Z,3.20
2023-03-21T14:30:01.816Z,3.40
2023-03-21T14:32:32.226Z,4.77
2023-03-21T14:35:02.530Z,2.50
2023-03-21T14:37:33.382Z,2.07
2023-03-21T14:40:06.914Z,6.07
2023-03-21T14:42:37.096Z,2.07
2023-03-21T14:45:19.575Z,2.87
2023-03-21T14:48:02.516Z,3.40
2023-03-21T14:50:37.398Z,2.20
2023-03-21T14:53:06.973Z,3.07
2023-03-21T14:55:42.535Z,3.07
2023-03-21T14:58:14.009Z,2.47
2023-03-21T15:00:42.500Z,2.43
2023-03-21T15:03:16.171Z,2.83
2023-03-21T15:05:44.616Z,2.37
2023-03-21T15:08:17.101Z,4.37
2023-03-21T15:11:06.241Z,3.23
2023-03-21T15:13:37.627Z,5.73
2023-03-21T15:16:06.615Z,2.13
2023-03-21T15:18:39.006Z,4.53
2023-03-21T15:21:10.772Z,3.10
2023-03-21T15:23:41.450Z,3.87
2023-03-21T15:26:14.225Z,6.33
2023-03-21T15:28:42.549Z,3.93
2023-03-21T15:31:22.601Z,1.97
2023-03-21T15:33:54.023Z,2.57
2023-03-21T15:36:25.525Z,2.57
2023-03-21T15:38:54.744Z,2.20
2023-03-21T15:41:30.730Z,2.17
2023-03-21T15:44:06.416Z,3.30
2023-03-21T15:46:42.198Z,3.87
2023-03-21T15:49:25.416Z,3.87
2023-03-21T15:51:57.451Z,4.43
2023-03-21T15:54:29.321Z,2.13
2023-03-21T15:57:01.364Z,2.43
2023-03-21T15:59:34.730Z,3.20
2023-03-21T16:02:03.847Z,2.00
2023-03-21T16:04:33.510Z,3.80
2023-03-21T16:07:03.281Z,4.63
2023-03-21T16:09:41.137Z,3.20
2023-03-21T16:12:13.440Z,3.60
2023-03-21T16:14:42.561Z,3.10
2023-03-21T16:17:28.043Z,2.30
2023-03-21T16:19:57.577Z,1.80
2023-03-21T16:22:25.818Z,3.60
2023-03-21T16:24:54.156Z,7.63
2023-03-21T16:27:22.564Z,2.03
2023-03-21T16:29:51.053Z,3.57
2023-03-21T16:32:21.560Z,2.87
2023-03-21T16:34:53.594Z,5.33
2023-03-21T16:37:23.146Z,2.37
2023-03-21T16:39:51.423Z,5.70
2023-03-21T16:42:19.689Z,2.40
2023-03-21T16:44:47.863Z,2.00
2023-03-21T16:47:18.833Z,3.40
2023-03-21T16:49:47.457Z,3.70
2023-03-21T16:52:16.470Z,5.83
2023-03-21T16:54:45.963Z,5.00
2023-03-21T16:57:27.608Z,3.13
2023-03-21T16:59:56.047Z,4.83
2023-03-21T17:02:25.991Z,7.10
2023-03-21T17:04:54.241Z,8.23
2023-03-21T17:07:22.543Z,6.50
2023-03-21T17:09:52.141Z,7.43
2023-03-21T17:12:20.609Z,7.83
2023-03-21T17:14:48.755Z,5.93
2023-03-21T17:17:18.081Z,4.20
2023-03-21T17:19:46.614Z,4.63
2023-03-21T17:22:14.816Z,8.03
2023-03-21T17:24:43.352Z,3.93
2023-03-21T17:27:18.359Z,4.23
2023-03-21T17:29:46.520Z,6.03
2023-03-21T17:32:15.122Z,6.90
2023-03-21T17:34:43.286Z,4.50
2023-03-21T17:37:13.035Z,10.57
2023-03-21T17:39:43.238Z,5.50
2023-03-21T17:42:18.224Z,4.13
2023-03-21T17:44:46.482Z,4.90
2023-03-21T17:47:14.681Z,9.67
2023-03-21T17:49:42.814Z,3.43
2023-03-21T17:52:11.106Z,5.03
2023-03-21T17:54:41.269Z,5.63
2023-03-21T17:57:12.040Z,5.20
2023-03-21T17:59:41.475Z,6.83
2023-03-21T18:02:09.885Z,3.40
2023-03-21T18:04:38.195Z,4.03
2023-03-21T18:07:10.670Z,4.60
2023-03-21T18:09:42.087Z,4.37
2023-03-21T18:12:10.854Z,3.73
2023-03-21T18:14:40.701Z,4.47
2023-03-21T18:17:11.159Z,3.60
2023-03-21T18:19:39.350Z,2.73
2023-03-21T18:22:07.820Z,2.57
2023-03-21T18:24:36.484Z,2.83
2023-03-21T18:27:04.789Z,2.70
2023-03-21T18:32:23.122Z,2.57
2023-03-21T18:34:51.734Z,3.47
2023-03-21T18:37:20.799Z,1.60
2023-03-21T18:39:50.397Z,3.53
2023-03-21T18:42:19.128Z,2.60
2023-03-21T18:44:50.217Z,2.70
2023-03-21T18:47:19.047Z,3.40
2023-03-21T18:50:12.796Z,3.10
2023-03-21T18:52:37.409Z,2.37
2023-03-21T18:55:06.421Z,3.63
2023-03-21T18:57:37.908Z,3.17
2023-03-21T19:00:12.616Z,2.63
2023-03-21T19:02:46.759Z,1.90
2023-03-21T19:05:17.896Z,2.27
2023-03-21T19:07:47.866Z,4.53
2023-03-21T19:10:19.345Z,6.00
2023-03-21T19:12:48.945Z,3.63
2023-03-21T19:15:19.924Z,3.07
2023-03-21T19:20:39.980Z,1.90
2023-03-21T19:23:09.709Z,5.70
2023-03-21T19:25:39.011Z,10.37
2023-03-21T19:28:07.245Z,9.80
2023-03-21T19:30:35.395Z,8.40
2023-03-21T19:33:03.568Z,5.30
2023-03-21T19:35:32.088Z,6.50
2023-03-21T19:38:01.786Z,6.73
2023-03-21T19:40:30.348Z,6.37
2023-03-21T19:42:58.847Z,9.20
2023-03-21T19:45:27.564Z,7.27
2023-03-21T19:47:55.795Z,8.10
2023-03-21T19:50:57.992Z,6.60
2023-03-21T19:53:18.454Z,7.70
2023-03-21T19:55:50.823Z,8.37
2023-03-21T19:58:22.689Z,6.20
2023-03-21T20:00:51.774Z,6.17
2023-03-21T20:03:22.288Z,6.90
2023-03-21T20:05:50.821Z,4.90
2023-03-21T20:08:20.620Z,4.30
2023-03-21T20:10:48.786Z,5.20
2023-03-21T20:13:17.100Z,12.03
2023-03-21T20:15:48.202Z,10.20
2023-03-21T20:18:16.909Z,7.90
2023-03-21T20:20:45.231Z,7.50
2023-03-21T20:23:15.894Z,5.87
2023-03-21T20:25:46.489Z,5.30
2023-03-21T20:28:24.285Z,5.87
2023-03-21T20:30:57.006Z,5.90
2023-03-21T20:33:25.634Z,4.73
2023-03-21T20:36:37.652Z,5.07
2023-03-21T20:38:47.366Z,4.87
2023-03-21T20:41:17.095Z,7.73
2023-03-21T20:46:35.287Z,7.73
2023-03-21T20:49:06.613Z,7.67
2023-03-21T20:54:23.226Z,11.00
2023-03-21T20:56:52.840Z,8.80
2023-03-21T20:59:27.203Z,10.23
2023-03-21T21:01:57.177Z,8.67
2023-03-21T21:04:44.126Z,9.97
2023-03-21T21:07:16.200Z,7.60
2023-03-21T21:09:44.738Z,7.20
2023-03-21T21:12:16.413Z,7.30
2023-03-21T21:14:45.400Z,8.10
2023-03-21T21:20:02.347Z,13.43
2023-03-21T21:22:31.581Z,14.83
2023-03-21T21:25:00.026Z,20.50
2023-03-21T21:27:29.560Z,22.90
2023-03-21T21:29:57.874Z,18.87
2023-03-21T21:32:25.997Z,18.13
2023-03-21T21:34:54.104Z,17.00
2023-03-21T21:37:22.564Z,14.57
2023-03-21T21:39:50.766Z,13.57
2023-03-21T21:42:18.986Z,15.97
2023-03-21T21:44:48.706Z,12.17
2023-03-21T21:47:17.166Z,9.67
2023-03-21T21:49:45.850Z,15.50
2023-03-21T21:52:14.430Z,9.37
2023-03-21T21:54:45.716Z,12.13
2023-03-21T21:57:14.717Z,12.20
2023-03-21T21:59:43.021Z,9.10
2023-03-21T22:02:16.809Z,9.90
2023-03-21T22:04:45.021Z,11.57
2023-03-21T22:07:14.738Z,7.70
2023-03-21T22:09:43.714Z,6.33
2023-03-21T22:12:12.021Z,6.60
2023-03-21T22:14:40.553Z,4.50
2023-03-21T22:17:09.035Z,4.60
2023-03-21T22:19:40.238Z,6.80
2023-03-21T22:22:08.633Z,9.30
2023-03-21T22:24:37.533Z,13.73
2023-03-21T22:27:06.162Z,7.87
2023-03-21T22:29:34.363Z,9.43
2023-03-21T22:32:02.626Z,7.23
2023-03-21T22:34:31.215Z,6.40
2023-03-21T22:37:02.474Z,26.43
2023-03-21T22:39:31.144Z,6.50
2023-03-21T22:42:01.349Z,6.67
2023-03-21T22:44:34.455Z,4.60
2023-03-21T22:47:03.786Z,5.33
2023-03-21T22:49:32.909Z,6.23
2023-03-21T22:52:03.353Z,4.80
2023-03-21T22:54:31.926Z,6.43
2023-03-21T22:57:00.539Z,5.53
2023-03-21T22:59:29.036Z,3.47
2023-03-21T23:01:57.668Z,3.57
2023-03-21T23:04:28.565Z,7.30
2023-03-21T23:06:56.936Z,6.13
2023-03-21T23:09:27.442Z,5.23
2023-03-21T23:11:55.746Z,4.37
2023-03-21T23:14:24.172Z,3.83
2023-03-21T23:16:54.708Z,4.37
2023-03-21T23:19:25.382Z,8.67
2023-03-21T23:21:53.522Z,5.73
2023-03-21T23:24:22.317Z,6.07
2023-03-21T23:26:51.794Z,6.20
2023-03-21T23:29:20.046Z,7.83
2023-03-21T23:31:48.268Z,9.00
2023-03-21T23:34:16.677Z,5.00
2023-03-21T23:36:44.817Z,5.40
2023-03-21T23:39:13.211Z,5.50
2023-03-21T23:41:42.832Z,4.93
2023-03-21T23:44:12.706Z,6.30
2023-03-21T23:46:40.925Z,7.60
2023-03-21T23:49:09.002Z,4.97
2023-03-21T23:51:37.173Z,5.43
2023-03-21T23:54:05.457Z,7.13
2023-03-21T23:56:33.635Z,4.17
2023-03-21T23:59:01.896Z,4.43
